sensor_id;sensor_type;location;lat;lon;timestamp;P1;durP1;ratioP1;P2;durP2;ratioP2
2912;SDS011;1466;48.778;9.166;2023-04-06T00:01:30;16.07;;;7.23;;
2912;SDS011;1466;48.778;9.166;2023-04-06T00:03:55;13.63;;;7.40;;
2912;SDS011;1466;48.778;9.166;2023-04-06T00:06:21;15.67;;;7.37;;
2912;SDS011;1466;48.778;9.166;2023-04-06T00:08:47;21.00;;;7.80;;
2912;SDS011;1466;48.778;9.166;2023-04-06T00:11:12;15.83;;;7.80;;
2912;SDS011;1466;48.778;9.166;2023-04-06T00:13:38;17.17;;;7.90;;
2912;SDS011;1466;48.778;9.166;2023-04-06T00:16:04;15.60;;;7.57;;
2912;SDS011;1466;48.778;9.166;2023-04-06T00:18:30;20.23;;;8.23;;
2912;SDS011;1466;48.778;9.166;2023-04-06T00:20:56;18.38;;;8.23;;
2912;SDS011;1466;48.778;9.166;2023-04-06T00:23:22;15.27;;;6.97;;
2912;SDS011;1466;48.778;9.166;2023-04-06T00:25:47;18.47;;;7.70;;
2912;SDS011;1466;48.778;9.166;2023-04-06T00:28:13;24.30;;;8.67;;
2912;SDS011;1466;48.778;9.166;2023-04-06T00:30:40;23.40;;;8.07;;
2912;SDS011;1466;48.778;9.166;2023-04-06T00:33:06;24.85;;;8.63;;
2912;SDS011;1466;48.778;9.166;2023-04-06T00:35:32;34.10;;;10.07;;
2912;SDS011;1466;48.778;9.166;2023-04-06T00:37:57;25.13;;;9.43;;
2912;SDS011;1466;48.778;9.166;2023-04-06T00:40:23;19.13;;;8.00;;
2912;SDS011;1466;48.778;9.166;2023-04-06T00:42:49;19.57;;;8.13;;
2912;SDS011;1466;48.778;9.166;2023-04-06T00:45:15;23.03;;;8.47;;
2912;SDS011;1466;48.778;9.166;2023-04-06T00:47:41;26.33;;;7.73;;
2912;SDS011;1466;48.778;9.166;2023-04-06T00:50:07;18.55;;;8.65;;
2912;SDS011;1466;48.778;9.166;2023-04-06T00:52:33;23.58;;;8.82;;
2912;SDS011;1466;48.778;9.166;2023-04-06T00:54:59;16.38;;;7.15;;
2912;SDS011;1466;48.778;9.166;2023-04-06T00:57:25;22.67;;;8.73;;
2912;SDS011;1466;48.778;9.166;2023-04-06T00:59:51;13.67;;;7.20;;
2912;SDS011;1466;48.778;9.166;2023-04-06T01:02:18;17.08;;;7.88;;
2912;SDS011;1466;48.778;9.166;2023-04-06T01:04:44;17.23;;;7.73;;
2912;SDS011;1466;48.778;9.166;2023-04-06T01:07:10;20.65;;;8.60;;
2912;SDS011;1466;48.778;9.166;2023-04-06T01:09:35;19.97;;;8.80;;
2912;SDS011;1466;48.778;9.166;2023-04-06T01:12:01;20.57;;;8.43;;
2912;SDS011;1466;48.778;9.166;2023-04-06T01:14:28;12.88;;;7.18;;
2912;SDS011;1466;48.778;9.166;2023-04-06T01:16:54;24.27;;;8.55;;
2912;SDS011;1466;48.778;9.166;2023-04-06T01:19:22;14.40;;;7.35;;
2912;SDS011;1466;48.778;9.166;2023-04-06T01:21:48;15.55;;;7.10;;
2912;SDS011;1466;48.778;9.166;2023-04-06T01:24:15;17.88;;;8.70;;
2912;SDS011;1466;48.778;9.166;2023-04-06T01:26:43;13.93;;;6.97;;
2912;SDS011;1466;48.778;9.166;2023-04-06T01:29:09;19.50;;;8.48;;
2912;SDS011;1466;48.778;9.166;2023-04-06T01:31:35;25.47;;;9.70;;
2912;SDS011;1466;48.778;9.166;2023-04-06T01:34:01;19.03;;;8.00;;
2912;SDS011;1466;48.778;9.166;2023-04-06T01:36:26;13.03;;;7.10;;
2912;SDS011;1466;48.778;9.166;2023-04-06T01:38:52;15.27;;;7.70;;
2912;SDS011;1466;48.778;9.166;2023-04-06T01:41:17;16.93;;;8.17;;
2912;SDS011;1466;48.778;9.166;2023-04-06T01:43:43;14.40;;;7.77;;
2912;SDS011;1466;48.778;9.166;2023-04-06T01:46:10;19.33;;;7.85;;
2912;SDS011;1466;48.778;9.166;2023-04-06T01:48:35;78.57;;;15.63;;
2912;SDS011;1466;48.778;9.166;2023-04-06T01:51:01;25.70;;;9.20;;
2912;SDS011;1466;48.778;9.166;2023-04-06T01:53:27;21.70;;;8.70;;
2912;SDS011;1466;48.778;9.166;2023-04-06T01:55:52;18.50;;;7.67;;
2912;SDS011;1466;48.778;9.166;2023-04-06T01:58:18;14.63;;;7.93;;
2912;SDS011;1466;48.778;9.166;2023-04-06T02:00:43;15.73;;;8.30;;
2912;SDS011;1466;48.778;9.166;2023-04-06T02:03:09;21.30;;;8.27;;
2912;SDS011;1466;48.778;9.166;2023-04-06T02:05:35;20.13;;;8.10;;
2912;SDS011;1466;48.778;9.166;2023-04-06T02:08:06;28.67;;;8.55;;
2912;SDS011;1466;48.778;9.166;2023-04-06T02:10:32;19.10;;;8.65;;
2912;SDS011;1466;48.778;9.166;2023-04-06T02:12:59;16.33;;;7.38;;
2912;SDS011;1466;48.778;9.166;2023-04-06T02:15:25;12.63;;;7.50;;
2912;SDS011;1466;48.778;9.166;2023-04-06T02:17:51;26.60;;;9.30;;
2912;SDS011;1466;48.778;9.166;2023-04-06T02:20:17;14.43;;;7.33;;
2912;SDS011;1466;48.778;9.166;2023-04-06T02:22:43;15.67;;;7.20;;
2912;SDS011;1466;48.778;9.166;2023-04-06T02:25:09;24.20;;;9.00;;
2912;SDS011;1466;48.778;9.166;2023-04-06T02:27:34;17.50;;;8.38;;
2912;SDS011;1466;48.778;9.166;2023-04-06T02:30:01;20.08;;;8.65;;
2912;SDS011;1466;48.778;9.166;2023-04-06T02:32:30;27.10;;;9.40;;
2912;SDS011;1466;48.778;9.166;2023-04-06T02:34:55;11.97;;;7.50;;
2912;SDS011;1466;48.778;9.166;2023-04-06T02:37:21;14.67;;;7.10;;
2912;SDS011;1466;48.778;9.166;2023-04-06T02:39:48;17.75;;;8.23;;
2912;SDS011;1466;48.778;9.166;2023-04-06T02:42:14;22.48;;;8.55;;
2912;SDS011;1466;48.778;9.166;2023-04-06T02:44:41;16.50;;;8.60;;
2912;SDS011;1466;48.778;9.166;2023-04-06T02:47:07;22.27;;;8.80;;
2912;SDS011;1466;48.778;9.166;2023-04-06T02:49:32;29.57;;;9.87;;
2912;SDS011;1466;48.778;9.166;2023-04-06T02:51:59;20.27;;;9.37;;
2912;SDS011;1466;48.778;9.166;2023-04-06T02:54:25;24.55;;;8.48;;
2912;SDS011;1466;48.778;9.166;2023-04-06T02:56:51;15.30;;;7.80;;
2912;SDS011;1466;48.778;9.166;2023-04-06T02:59:16;15.07;;;7.80;;
2912;SDS011;1466;48.778;9.166;2023-04-06T03:01:42;16.27;;;7.00;;
2912;SDS011;1466;48.778;9.166;2023-04-06T03:04:08;25.03;;;8.97;;
2912;SDS011;1466;48.778;9.166;2023-04-06T03:06:33;19.17;;;8.00;;
2912;SDS011;1466;48.778;9.166;2023-04-06T03:08:59;30.90;;;10.27;;
2912;SDS011;1466;48.778;9.166;2023-04-06T03:11:25;20.53;;;8.30;;
2912;SDS011;1466;48.778;9.166;2023-04-06T03:13:51;16.15;;;7.65;;
2912;SDS011;1466;48.778;9.166;2023-04-06T03:16:17;25.00;;;10.03;;
2912;SDS011;1466;48.778;9.166;2023-04-06T03:18:42;18.90;;;8.17;;
2912;SDS011;1466;48.778;9.166;2023-04-06T03:21:10;21.25;;;8.55;;
2912;SDS011;1466;48.778;9.166;2023-04-06T03:23:35;14.83;;;6.97;;
2912;SDS011;1466;48.778;9.166;2023-04-06T03:26:01;22.10;;;9.40;;
2912;SDS011;1466;48.778;9.166;2023-04-06T03:28:27;16.65;;;8.32;;
2912;SDS011;1466;48.778;9.166;2023-04-06T03:30:53;17.67;;;9.73;;
2912;SDS011;1466;48.778;9.166;2023-04-06T03:33:19;15.33;;;7.97;;
2912;SDS011;1466;48.778;9.166;2023-04-06T03:35:45;23.17;;;9.07;;
2912;SDS011;1466;48.778;9.166;2023-04-06T03:38:10;17.53;;;7.50;;
2912;SDS011;1466;48.778;9.166;2023-04-06T03:40:36;19.60;;;8.33;;
2912;SDS011;1466;48.778;9.166;2023-04-06T03:43:02;37.63;;;10.20;;
2912;SDS011;1466;48.778;9.166;2023-04-06T03:45:27;18.43;;;8.30;;
2912;SDS011;1466;48.778;9.166;2023-04-06T03:47:53;35.33;;;11.13;;
2912;SDS011;1466;48.778;9.166;2023-04-06T03:50:18;17.43;;;7.67;;
2912;SDS011;1466;48.778;9.166;2023-04-06T03:52:44;40.17;;;11.97;;
2912;SDS011;1466;48.778;9.166;2023-04-06T03:55:10;18.03;;;8.93;;
2912;SDS011;1466;48.778;9.166;2023-04-06T03:57:35;20.20;;;9.27;;
2912;SDS011;1466;48.778;9.166;2023-04-06T04:00:02;23.38;;;9.00;;
2912;SDS011;1466;48.778;9.166;2023-04-06T04:02:28;22.00;;;8.73;;
2912;SDS011;1466;48.778;9.166;2023-04-06T04:04:54;15.37;;;8.77;;
2912;SDS011;1466;48.778;9.166;2023-04-06T04:07:20;21.03;;;8.77;;
2912;SDS011;1466;48.778;9.166;2023-04-06T04:09:45;16.53;;;8.80;;
2912;SDS011;1466;48.778;9.166;2023-04-06T04:12:11;17.27;;;8.70;;
2912;SDS011;1466;48.778;9.166;2023-04-06T04:14:36;16.30;;;7.97;;
2912;SDS011;1466;48.778;9.166;2023-04-06T04:17:02;21.37;;;9.13;;
2912;SDS011;1466;48.778;9.166;2023-04-06T04:19:28;25.80;;;9.20;;
2912;SDS011;1466;48.778;9.166;2023-04-06T04:21:53;21.40;;;9.57;;
2912;SDS011;1466;48.778;9.166;2023-04-06T04:24:19;18.00;;;8.30;;
2912;SDS011;1466;48.778;9.166;2023-04-06T04:26:44;26.47;;;8.70;;
2912;SDS011;1466;48.778;9.166;2023-04-06T04:29:10;16.70;;;7.97;;
2912;SDS011;1466;48.778;9.166;2023-04-06T04:31:36;17.03;;;8.63;;
2912;SDS011;1466;48.778;9.166;2023-04-06T04:34:01;19.50;;;8.00;;
2912;SDS011;1466;48.778;9.166;2023-04-06T04:36:27;23.30;;;10.33;;
2912;SDS011;1466;48.778;9.166;2023-04-06T04:38:52;21.60;;;9.43;;
2912;SDS011;1466;48.778;9.166;2023-04-06T04:41:18;25.80;;;9.40;;
2912;SDS011;1466;48.778;9.166;2023-04-06T04:43:44;25.20;;;9.30;;
2912;SDS011;1466;48.778;9.166;2023-04-06T04:46:10;34.50;;;9.55;;
2912;SDS011;1466;48.778;9.166;2023-04-06T04:48:36;19.83;;;8.13;;
2912;SDS011;1466;48.778;9.166;2023-04-06T04:51:01;23.00;;;9.90;;
2912;SDS011;1466;48.778;9.166;2023-04-06T04:53:28;22.55;;;10.68;;
2912;SDS011;1466;48.778;9.166;2023-04-06T04:55:54;26.33;;;9.77;;
2912;SDS011;1466;48.778;9.166;2023-04-06T04:58:20;24.93;;;10.47;;
2912;SDS011;1466;48.778;9.166;2023-04-06T05:00:46;19.40;;;8.47;;
2912;SDS011;1466;48.778;9.166;2023-04-06T05:03:19;29.33;;;10.10;;
2912;SDS011;1466;48.778;9.166;2023-04-06T05:05:47;23.45;;;9.95;;
2912;SDS011;1466;48.778;9.166;2023-04-06T05:08:13;21.33;;;9.73;;
2912;SDS011;1466;48.778;9.166;2023-04-06T05:10:38;17.77;;;9.07;;
2912;SDS011;1466;48.778;9.166;2023-04-06T05:13:04;20.20;;;9.30;;
2912;SDS011;1466;48.778;9.166;2023-04-06T05:15:30;24.60;;;9.90;;
2912;SDS011;1466;48.778;9.166;2023-04-06T05:17:55;22.43;;;9.27;;
2912;SDS011;1466;48.778;9.166;2023-04-06T05:20:21;22.30;;;8.83;;
2912;SDS011;1466;48.778;9.166;2023-04-06T05:22:47;22.97;;;8.57;;
2912;SDS011;1466;48.778;9.166;2023-04-06T05:25:13;20.97;;;9.10;;
2912;SDS011;1466;48.778;9.166;2023-04-06T05:27:39;20.63;;;8.55;;
2912;SDS011;1466;48.778;9.166;2023-04-06T05:30:06;22.13;;;9.43;;
2912;SDS011;1466;48.778;9.166;2023-04-06T05:32:32;21.48;;;9.32;;
2912;SDS011;1466;48.778;9.166;2023-04-06T05:34:58;18.40;;;8.80;;
2912;SDS011;1466;48.778;9.166;2023-04-06T05:37:24;24.10;;;9.77;;
2912;SDS011;1466;48.778;9.166;2023-04-06T05:39:49;17.33;;;8.83;;
2912;SDS011;1466;48.778;9.166;2023-04-06T05:42:15;27.50;;;10.50;;
2912;SDS011;1466;48.778;9.166;2023-04-06T05:44:41;21.52;;;9.25;;
2912;SDS011;1466;48.778;9.166;2023-04-06T05:47:07;31.93;;;10.10;;
2912;SDS011;1466;48.778;9.166;2023-04-06T05:49:33;24.35;;;8.63;;
2912;SDS011;1466;48.778;9.166;2023-04-06T05:51:59;17.25;;;9.20;;
2912;SDS011;1466;48.778;9.166;2023-04-06T05:54:25;42.70;;;12.30;;
2912;SDS011;1466;48.778;9.166;2023-04-06T05:56:51;24.27;;;10.17;;
2912;SDS011;1466;48.778;9.166;2023-04-06T05:59:16;28.07;;;10.67;;
2912;SDS011;1466;48.778;9.166;2023-04-06T06:01:42;23.00;;;11.30;;
2912;SDS011;1466;48.778;9.166;2023-04-06T06:04:08;29.57;;;12.23;;
2912;SDS011;1466;48.778;9.166;2023-04-06T06:06:33;24.03;;;12.20;;
2912;SDS011;1466;48.778;9.166;2023-04-06T06:08:59;27.95;;;12.75;;
2912;SDS011;1466;48.778;9.166;2023-04-06T06:11:26;38.58;;;14.63;;
2912;SDS011;1466;48.778;9.166;2023-04-06T06:13:52;31.02;;;12.00;;
2912;SDS011;1466;48.778;9.166;2023-04-06T06:16:18;43.23;;;14.07;;
2912;SDS011;1466;48.778;9.166;2023-04-06T06:18:44;26.05;;;11.15;;
2912;SDS011;1466;48.778;9.166;2023-04-06T06:21:10;28.45;;;12.02;;
2912;SDS011;1466;48.778;9.166;2023-04-06T06:23:39;21.40;;;11.55;;
2912;SDS011;1466;48.778;9.166;2023-04-06T06:26:06;28.00;;;12.02;;
2912;SDS011;1466;48.778;9.166;2023-04-06T06:28:32;26.20;;;11.97;;
2912;SDS011;1466;48.778;9.166;2023-04-06T06:30:58;35.37;;;13.47;;
2912;SDS011;1466;48.778;9.166;2023-04-06T06:33:23;28.30;;;11.27;;
2912;SDS011;1466;48.778;9.166;2023-04-06T06:35:50;35.03;;;12.88;;
2912;SDS011;1466;48.778;9.166;2023-04-06T06:38:16;30.13;;;12.80;;
2912;SDS011;1466;48.778;9.166;2023-04-06T06:40:42;31.93;;;12.63;;
2912;SDS011;1466;48.778;9.166;2023-04-06T06:43:08;30.70;;;13.27;;
2912;SDS011;1466;48.778;9.166;2023-04-06T06:45:33;33.23;;;12.43;;
2912;SDS011;1466;48.778;9.166;2023-04-06T06:47:59;36.13;;;14.23;;
2912;SDS011;1466;48.778;9.166;2023-04-06T06:50:25;40.00;;;14.03;;
2912;SDS011;1466;48.778;9.166;2023-04-06T06:52:50;30.70;;;13.60;;
2912;SDS011;1466;48.778;9.166;2023-04-06T06:55:16;41.53;;;13.93;;
2912;SDS011;1466;48.778;9.166;2023-04-06T06:57:44;27.92;;;12.68;;
2912;SDS011;1466;48.778;9.166;2023-04-06T07:00:11;46.20;;;15.93;;
2912;SDS011;1466;48.778;9.166;2023-04-06T07:02:38;28.33;;;11.82;;
2912;SDS011;1466;48.778;9.166;2023-04-06T07:05:03;26.63;;;12.20;;
2912;SDS011;1466;48.778;9.166;2023-04-06T07:07:31;38.42;;;13.98;;
2912;SDS011;1466;48.778;9.166;2023-04-06T07:09:57;26.42;;;11.63;;
2912;SDS011;1466;48.778;9.166;2023-04-06T07:12:23;29.03;;;12.33;;
2912;SDS011;1466;48.778;9.166;2023-04-06T07:14:48;32.53;;;12.83;;
2912;SDS011;1466;48.778;9.166;2023-04-06T07:17:14;31.97;;;11.30;;
2912;SDS011;1466;48.778;9.166;2023-04-06T07:19:40;25.40;;;11.27;;
2912;SDS011;1466;48.778;9.166;2023-04-06T07:22:05;35.33;;;13.90;;
2912;SDS011;1466;48.778;9.166;2023-04-06T07:24:31;22.50;;;10.90;;
2912;SDS011;1466;48.778;9.166;2023-04-06T07:26:58;24.57;;;11.93;;
2912;SDS011;1466;48.778;9.166;2023-04-06T07:29:25;40.95;;;14.57;;
2912;SDS011;1466;48.778;9.166;2023-04-06T07:31:51;30.02;;;12.77;;
2912;SDS011;1466;48.778;9.166;2023-04-06T07:34:17;29.07;;;12.87;;
2912;SDS011;1466;48.778;9.166;2023-04-06T07:36:42;37.57;;;13.90;;
2912;SDS011;1466;48.778;9.166;2023-04-06T07:39:08;40.70;;;14.30;;
2912;SDS011;1466;48.778;9.166;2023-04-06T07:41:34;33.30;;;13.00;;
2912;SDS011;1466;48.778;9.166;2023-04-06T07:44:00;25.63;;;10.90;;
2912;SDS011;1466;48.778;9.166;2023-04-06T07:46:25;31.43;;;13.23;;
2912;SDS011;1466;48.778;9.166;2023-04-06T07:48:51;25.77;;;12.57;;
2912;SDS011;1466;48.778;9.166;2023-04-06T07:51:16;32.80;;;13.37;;
2912;SDS011;1466;48.778;9.166;2023-04-06T07:53:43;24.57;;;11.03;;
2912;SDS011;1466;48.778;9.166;2023-04-06T07:56:09;18.08;;;9.63;;
2912;SDS011;1466;48.778;9.166;2023-04-06T07:58:37;24.98;;;11.13;;
2912;SDS011;1466;48.778;9.166;2023-04-06T08:01:02;33.90;;;12.53;;
2912;SDS011;1466;48.778;9.166;2023-04-06T08:03:28;29.03;;;13.00;;
2912;SDS011;1466;48.778;9.166;2023-04-06T08:05:54;36.27;;;12.90;;
2912;SDS011;1466;48.778;9.166;2023-04-06T08:08:20;25.83;;;12.60;;
2912;SDS011;1466;48.778;9.166;2023-04-06T08:10:47;24.80;;;12.30;;
2912;SDS011;1466;48.778;9.166;2023-04-06T08:13:13;22.25;;;11.25;;
2912;SDS011;1466;48.778;9.166;2023-04-06T08:15:39;28.55;;;12.05;;
2912;SDS011;1466;48.778;9.166;2023-04-06T08:18:05;35.83;;;13.53;;
2912;SDS011;1466;48.778;9.166;2023-04-06T08:20:31;25.67;;;11.70;;
2912;SDS011;1466;48.778;9.166;2023-04-06T08:22:56;28.63;;;12.33;;
2912;SDS011;1466;48.778;9.166;2023-04-06T08:25:22;23.77;;;11.23;;
2912;SDS011;1466;48.778;9.166;2023-04-06T08:27:47;25.23;;;10.93;;
2912;SDS011;1466;48.778;9.166;2023-04-06T08:30:13;39.73;;;11.50;;
2912;SDS011;1466;48.778;9.166;2023-04-06T08:32:40;27.67;;;12.57;;
2912;SDS011;1466;48.778;9.166;2023-04-06T08:35:06;31.20;;;13.17;;
2912;SDS011;1466;48.778;9.166;2023-04-06T08:37:33;29.58;;;12.13;;
2912;SDS011;1466;48.778;9.166;2023-04-06T08:39:58;33.23;;;14.37;;
2912;SDS011;1466;48.778;9.166;2023-04-06T08:42:25;27.00;;;12.90;;
2912;SDS011;1466;48.778;9.166;2023-04-06T08:44:55;30.65;;;13.43;;
2912;SDS011;1466;48.778;9.166;2023-04-06T08:47:21;37.33;;;12.70;;
2912;SDS011;1466;48.778;9.166;2023-04-06T08:49:46;37.67;;;13.50;;
2912;SDS011;1466;48.778;9.166;2023-04-06T08:52:13;31.88;;;12.55;;
2912;SDS011;1466;48.778;9.166;2023-04-06T08:54:43;23.50;;;11.30;;
2912;SDS011;1466;48.778;9.166;2023-04-06T08:57:08;35.57;;;15.13;;
2912;SDS011;1466;48.778;9.166;2023-04-06T08:59:34;24.48;;;13.10;;
2912;SDS011;1466;48.778;9.166;2023-04-06T09:02:02;34.33;;;13.63;;
2912;SDS011;1466;48.778;9.166;2023-04-06T09:04:30;27.08;;;11.77;;
2912;SDS011;1466;48.778;9.166;2023-04-06T09:06:57;24.17;;;12.30;;
2912;SDS011;1466;48.778;9.166;2023-04-06T09:09:22;25.10;;;11.73;;
2912;SDS011;1466;48.778;9.166;2023-04-06T09:11:50;25.73;;;11.00;;
2912;SDS011;1466;48.778;9.166;2023-04-06T09:14:17;36.58;;;13.43;;
2912;SDS011;1466;48.778;9.166;2023-04-06T09:16:57;22.73;;;9.73;;
2912;SDS011;1466;48.778;9.166;2023-04-06T09:19:23;25.93;;;11.43;;
2912;SDS011;1466;48.778;9.166;2023-04-06T09:21:48;36.17;;;12.20;;
2912;SDS011;1466;48.778;9.166;2023-04-06T09:24:14;21.87;;;10.40;;
2912;SDS011;1466;48.778;9.166;2023-04-06T09:26:45;22.60;;;11.25;;
2912;SDS011;1466;48.778;9.166;2023-04-06T09:29:21;34.55;;;13.20;;
2912;SDS011;1466;48.778;9.166;2023-04-06T09:32:01;26.45;;;10.70;;
2912;SDS011;1466;48.778;9.166;2023-04-06T09:34:36;28.50;;;12.35;;
2912;SDS011;1466;48.778;9.166;2023-04-06T09:37:13;24.15;;;10.60;;
2912;SDS011;1466;48.778;9.166;2023-04-06T09:39:43;29.65;;;13.57;;
2912;SDS011;1466;48.778;9.166;2023-04-06T09:42:09;24.38;;;11.35;;
2912;SDS011;1466;48.778;9.166;2023-04-06T09:44:35;19.98;;;10.52;;
2912;SDS011;1466;48.778;9.166;2023-04-06T09:47:00;24.13;;;10.83;;
2912;SDS011;1466;48.778;9.166;2023-04-06T09:49:31;24.13;;;12.00;;
2912;SDS011;1466;48.778;9.166;2023-04-06T09:52:00;20.85;;;10.70;;
2912;SDS011;1466;48.778;9.166;2023-04-06T09:54:31;28.65;;;12.80;;
2912;SDS011;1466;48.778;9.166;2023-04-06T09:59:44;21.20;;;10.35;;
2912;SDS011;1466;48.778;9.166;2023-04-06T10:07:56;26.85;;;10.98;;
2912;SDS011;1466;48.778;9.166;2023-04-06T10:10:25;25.83;;;11.20;;
2912;SDS011;1466;48.778;9.166;2023-04-06T10:12:51;13.98;;;8.63;;
2912;SDS011;1466;48.778;9.166;2023-04-06T10:15:17;22.67;;;10.60;;
2912;SDS011;1466;48.778;9.166;2023-04-06T10:17:43;28.33;;;9.83;;
2912;SDS011;1466;48.778;9.166;2023-04-06T10:20:18;25.95;;;9.88;;
2912;SDS011;1466;48.778;9.166;2023-04-06T10:22:55;22.27;;;10.48;;
2912;SDS011;1466;48.778;9.166;2023-04-06T10:25:27;19.33;;;9.50;;
2912;SDS011;1466;48.778;9.166;2023-04-06T10:28:30;35.55;;;12.45;;
2912;SDS011;1466;48.778;9.166;2023-04-06T10:30:45;18.70;;;9.13;;
2912;SDS011;1466;48.778;9.166;2023-04-06T10:33:15;23.27;;;9.85;;
2912;SDS011;1466;48.778;9.166;2023-04-06T10:35:45;18.83;;;8.82;;
2912;SDS011;1466;48.778;9.166;2023-04-06T10:38:11;24.23;;;9.02;;
2912;SDS011;1466;48.778;9.166;2023-04-06T10:40:39;18.52;;;9.30;;
2912;SDS011;1466;48.778;9.166;2023-04-06T10:43:18;18.30;;;8.80;;
2912;SDS011;1466;48.778;9.166;2023-04-06T10:45:54;17.13;;;8.45;;
2912;SDS011;1466;48.778;9.166;2023-04-06T10:48:20;22.58;;;9.50;;
2912;SDS011;1466;48.778;9.166;2023-04-06T10:50:47;16.90;;;7.83;;
2912;SDS011;1466;48.778;9.166;2023-04-06T10:53:24;16.85;;;8.80;;
2912;SDS011;1466;48.778;9.166;2023-04-06T10:55:51;17.50;;;8.52;;
2912;SDS011;1466;48.778;9.166;2023-04-06T10:58:18;18.73;;;8.88;;
2912;SDS011;1466;48.778;9.166;2023-04-06T11:00:45;21.15;;;9.35;;
2912;SDS011;1466;48.778;9.166;2023-04-06T11:03:12;21.75;;;8.75;;
2912;SDS011;1466;48.778;9.166;2023-04-06T11:05:38;11.67;;;6.50;;
2912;SDS011;1466;48.778;9.166;2023-04-06T11:08:03;15.57;;;7.00;;
2912;SDS011;1466;48.778;9.166;2023-04-06T11:10:29;18.43;;;8.03;;
2912;SDS011;1466;48.778;9.166;2023-04-06T11:12:55;17.83;;;8.70;;
2912;SDS011;1466;48.778;9.166;2023-04-06T11:15:21;19.45;;;8.93;;
2912;SDS011;1466;48.778;9.166;2023-04-06T11:17:47;22.53;;;9.30;;
2912;SDS011;1466;48.778;9.166;2023-04-06T11:20:14;23.48;;;9.85;;
2912;SDS011;1466;48.778;9.166;2023-04-06T11:22:52;16.75;;;9.63;;
2912;SDS011;1466;48.778;9.166;2023-04-06T11:25:18;28.52;;;11.10;;
2912;SDS011;1466;48.778;9.166;2023-04-06T11:27:45;25.57;;;10.87;;
2912;SDS011;1466;48.778;9.166;2023-04-06T11:30:11;19.20;;;9.63;;
2912;SDS011;1466;48.778;9.166;2023-04-06T11:32:42;17.67;;;8.38;;
2912;SDS011;1466;48.778;9.166;2023-04-06T11:35:21;25.75;;;10.40;;
2912;SDS011;1466;48.778;9.166;2023-04-06T11:37:51;22.33;;;10.40;;
2912;SDS011;1466;48.778;9.166;2023-04-06T11:40:22;22.75;;;9.55;;
2912;SDS011;1466;48.778;9.166;2023-04-06T11:42:52;15.82;;;7.70;;
2912;SDS011;1466;48.778;9.166;2023-04-06T11:45:19;18.58;;;8.02;;
2912;SDS011;1466;48.778;9.166;2023-04-06T11:47:45;23.67;;;10.10;;
2912;SDS011;1466;48.778;9.166;2023-04-06T11:50:11;25.90;;;10.13;;
2912;SDS011;1466;48.778;9.166;2023-04-06T11:52:38;17.92;;;9.25;;
2912;SDS011;1466;48.778;9.166;2023-04-06T11:55:14;13.40;;;7.65;;
2912;SDS011;1466;48.778;9.166;2023-04-06T11:57:41;16.13;;;8.18;;
2912;SDS011;1466;48.778;9.166;2023-04-06T12:00:08;19.58;;;8.70;;
2912;SDS011;1466;48.778;9.166;2023-04-06T12:02:38;17.73;;;8.18;;
2912;SDS011;1466;48.778;9.166;2023-04-06T12:05:04;19.92;;;9.00;;
2912;SDS011;1466;48.778;9.166;2023-04-06T12:07:32;18.52;;;9.48;;
2912;SDS011;1466;48.778;9.166;2023-04-06T12:09:58;31.70;;;11.03;;
2912;SDS011;1466;48.778;9.166;2023-04-06T12:12:24;19.40;;;8.45;;
2912;SDS011;1466;48.778;9.166;2023-04-06T12:14:50;22.92;;;10.15;;
2912;SDS011;1466;48.778;9.166;2023-04-06T12:17:16;21.20;;;10.13;;
2912;SDS011;1466;48.778;9.166;2023-04-06T12:19:41;13.87;;;8.80;;
2912;SDS011;1466;48.778;9.166;2023-04-06T12:22:07;23.80;;;9.63;;
2912;SDS011;1466;48.778;9.166;2023-04-06T12:24:33;22.17;;;9.50;;
2912;SDS011;1466;48.778;9.166;2023-04-06T12:26:58;17.23;;;8.93;;
2912;SDS011;1466;48.778;9.166;2023-04-06T12:29:24;22.93;;;9.30;;
2912;SDS011;1466;48.778;9.166;2023-04-06T12:31:50;30.27;;;11.50;;
2912;SDS011;1466;48.778;9.166;2023-04-06T12:34:16;26.10;;;10.60;;
2912;SDS011;1466;48.778;9.166;2023-04-06T12:36:41;21.93;;;9.70;;
2912;SDS011;1466;48.778;9.166;2023-04-06T12:39:07;18.30;;;9.50;;
2912;SDS011;1466;48.778;9.166;2023-04-06T12:41:33;26.10;;;9.83;;
2912;SDS011;1466;48.778;9.166;2023-04-06T12:43:59;20.92;;;9.27;;
2912;SDS011;1466;48.778;9.166;2023-04-06T12:46:25;19.50;;;8.80;;
2912;SDS011;1466;48.778;9.166;2023-04-06T12:48:51;27.07;;;9.90;;
2912;SDS011;1466;48.778;9.166;2023-04-06T12:51:20;18.90;;;8.98;;
2912;SDS011;1466;48.778;9.166;2023-04-06T12:53:47;10.95;;;5.15;;
2912;SDS011;1466;48.778;9.166;2023-04-06T12:56:13;20.43;;;9.27;;
2912;SDS011;1466;48.778;9.166;2023-04-06T12:58:43;18.00;;;8.45;;
2912;SDS011;1466;48.778;9.166;2023-04-06T13:01:09;15.00;;;8.13;;
2912;SDS011;1466;48.778;9.166;2023-04-06T13:03:37;19.20;;;8.45;;
2912;SDS011;1466;48.778;9.166;2023-04-06T13:06:03;20.92;;;9.57;;
2912;SDS011;1466;48.778;9.166;2023-04-06T13:08:29;15.97;;;8.40;;
2912;SDS011;1466;48.778;9.166;2023-04-06T13:10:55;16.50;;;8.00;;
2912;SDS011;1466;48.778;9.166;2023-04-06T13:13:25;14.33;;;8.30;;
2912;SDS011;1466;48.778;9.166;2023-04-06T13:15:52;14.65;;;8.00;;
2912;SDS011;1466;48.778;9.166;2023-04-06T13:18:18;17.35;;;7.65;;
2912;SDS011;1466;48.778;9.166;2023-04-06T13:20:46;17.43;;;8.50;;
2912;SDS011;1466;48.778;9.166;2023-04-06T13:23:12;20.83;;;9.77;;
2912;SDS011;1466;48.778;9.166;2023-04-06T13:25:37;14.97;;;7.83;;
2912;SDS011;1466;48.778;9.166;2023-04-06T13:28:03;19.07;;;8.93;;
2912;SDS011;1466;48.778;9.166;2023-04-06T13:30:28;21.47;;;9.40;;
2912;SDS011;1466;48.778;9.166;2023-04-06T13:32:54;21.45;;;9.93;;
2912;SDS011;1466;48.778;9.166;2023-04-06T13:35:20;21.70;;;9.50;;
2912;SDS011;1466;48.778;9.166;2023-04-06T13:37:46;12.77;;;7.37;;
2912;SDS011;1466;48.778;9.166;2023-04-06T13:40:11;21.07;;;9.87;;
2912;SDS011;1466;48.778;9.166;2023-04-06T13:42:37;22.83;;;8.63;;
2912;SDS011;1466;48.778;9.166;2023-04-06T13:45:05;16.73;;;7.50;;
2912;SDS011;1466;48.778;9.166;2023-04-06T13:47:31;20.88;;;9.30;;
2912;SDS011;1466;48.778;9.166;2023-04-06T13:49:56;18.63;;;9.00;;
2912;SDS011;1466;48.778;9.166;2023-04-06T13:52:22;16.20;;;8.50;;
2912;SDS011;1466;48.778;9.166;2023-04-06T13:54:48;23.63;;;10.27;;
2912;SDS011;1466;48.778;9.166;2023-04-06T13:57:14;19.40;;;9.98;;
2912;SDS011;1466;48.778;9.166;2023-04-06T13:59:40;14.40;;;8.23;;
2912;SDS011;1466;48.778;9.166;2023-04-06T14:02:07;18.60;;;7.63;;
2912;SDS011;1466;48.778;9.166;2023-04-06T14:04:34;18.20;;;8.52;;
2912;SDS011;1466;48.778;9.166;2023-04-06T14:07:00;17.40;;;8.47;;
2912;SDS011;1466;48.778;9.166;2023-04-06T14:09:26;14.85;;;7.18;;
2912;SDS011;1466;48.778;9.166;2023-04-06T14:11:53;26.70;;;8.90;;
2912;SDS011;1466;48.778;9.166;2023-04-06T14:14:19;16.03;;;8.43;;
2912;SDS011;1466;48.778;9.166;2023-04-06T14:16:45;15.07;;;7.65;;
2912;SDS011;1466;48.778;9.166;2023-04-06T14:19:12;15.70;;;8.00;;
2912;SDS011;1466;48.778;9.166;2023-04-06T14:21:40;19.48;;;9.68;;
2912;SDS011;1466;48.778;9.166;2023-04-06T14:24:07;17.02;;;8.00;;
2912;SDS011;1466;48.778;9.166;2023-04-06T14:26:33;13.40;;;7.88;;
2912;SDS011;1466;48.778;9.166;2023-04-06T14:29:03;18.30;;;8.05;;
2912;SDS011;1466;48.778;9.166;2023-04-06T14:31:29;26.08;;;10.90;;
2912;SDS011;1466;48.778;9.166;2023-04-06T14:33:55;15.35;;;6.82;;
2912;SDS011;1466;48.778;9.166;2023-04-06T14:36:21;24.83;;;8.60;;
2912;SDS011;1466;48.778;9.166;2023-04-06T14:38:46;18.67;;;8.47;;
2912;SDS011;1466;48.778;9.166;2023-04-06T14:41:16;16.60;;;8.37;;
2912;SDS011;1466;48.778;9.166;2023-04-06T14:43:42;18.48;;;8.02;;
2912;SDS011;1466;48.778;9.166;2023-04-06T14:46:08;20.43;;;8.33;;
2912;SDS011;1466;48.778;9.166;2023-04-06T14:48:34;15.93;;;8.53;;
2912;SDS011;1466;48.778;9.166;2023-04-06T14:51:00;22.10;;;9.98;;
2912;SDS011;1466;48.778;9.166;2023-04-06T14:53:26;16.23;;;8.80;;
2912;SDS011;1466;48.778;9.166;2023-04-06T14:55:52;21.35;;;9.13;;
2912;SDS011;1466;48.778;9.166;2023-04-06T14:58:18;15.67;;;8.10;;
2912;SDS011;1466;48.778;9.166;2023-04-06T15:00:44;18.10;;;8.50;;